sensor_id;sensor_type;location;lat;lon;timestamp;P1;durP1;ratioP1;P2;durP2;ratioP2
12852;SDS011;6495;51.808;7.478;2023-06-26T00:00:48;8.52;;;6.30;;
12852;SDS011;6495;51.808;7.478;2023-06-26T00:03:18;8.02;;;6.07;;
12852;SDS011;6495;51.808;7.478;2023-06-26T00:05:46;7.63;;;6.43;;
12852;SDS011;6495;51.808;7.478;2023-06-26T00:08:14;9.18;;;6.38;;
12852;SDS011;6495;51.808;7.478;2023-06-26T00:10:42;7.25;;;6.03;;
12852;SDS011;6495;51.808;7.478;2023-06-26T00:13:11;7.18;;;5.90;;
12852;SDS011;6495;51.808;7.478;2023-06-26T00:15:39;7.93;;;6.00;;
12852;SDS011;6495;51.808;7.478;2023-06-26T00:18:07;9.00;;;6.35;;
12852;SDS011;6495;51.808;7.478;2023-06-26T00:20:37;6.93;;;5.68;;
12852;SDS011;6495;51.808;7.478;2023-06-26T00:23:05;8.15;;;5.90;;
12852;SDS011;6495;51.808;7.478;2023-06-26T00:25:34;8.45;;;6.45;;
12852;SDS011;6495;51.808;7.478;2023-06-26T00:28:02;7.38;;;6.18;;
12852;SDS011;6495;51.808;7.478;2023-06-26T00:30:31;7.50;;;5.93;;
12852;SDS011;6495;51.808;7.478;2023-06-26T00:32:59;8.35;;;6.57;;
12852;SDS011;6495;51.808;7.478;2023-06-26T00:35:30;8.10;;;6.30;;
12852;SDS011;6495;51.808;7.478;2023-06-26T00:38:00;9.20;;;6.13;;
12852;SDS011;6495;51.808;7.478;2023-06-26T00:40:28;8.40;;;6.35;;
12852;SDS011;6495;51.808;7.478;2023-06-26T00:42:56;8.40;;;6.38;;
12852;SDS011;6495;51.808;7.478;2023-06-26T00:45:24;6.65;;;5.68;;
12852;SDS011;6495;51.808;7.478;2023-06-26T00:48:09;10.35;;;6.40;;
12852;SDS011;6495;51.808;7.478;2023-06-26T00:50:39;9.63;;;6.20;;
12852;SDS011;6495;51.808;7.478;2023-06-26T00:53:11;9.65;;;6.75;;
12852;SDS011;6495;51.808;7.478;2023-06-26T00:55:39;8.30;;;6.10;;
12852;SDS011;6495;51.808;7.478;2023-06-26T00:58:08;7.85;;;5.82;;
12852;SDS011;6495;51.808;7.478;2023-06-26T01:00:37;9.07;;;6.28;;
12852;SDS011;6495;51.808;7.478;2023-06-26T01:03:06;9.02;;;6.45;;
12852;SDS011;6495;51.808;7.478;2023-06-26T01:05:34;8.75;;;6.55;;
12852;SDS011;6495;51.808;7.478;2023-06-26T01:08:04;9.60;;;6.15;;
12852;SDS011;6495;51.808;7.478;2023-06-26T01:10:34;7.05;;;5.75;;
12852;SDS011;6495;51.808;7.478;2023-06-26T01:13:03;8.07;;;6.07;;
12852;SDS011;6495;51.808;7.478;2023-06-26T01:15:32;8.98;;;6.18;;
12852;SDS011;6495;51.808;7.478;2023-06-26T01:18:03;8.38;;;5.78;;
12852;SDS011;6495;51.808;7.478;2023-06-26T01:20:34;8.75;;;6.40;;
12852;SDS011;6495;51.808;7.478;2023-06-26T01:23:13;8.95;;;6.78;;
12852;SDS011;6495;51.808;7.478;2023-06-26T01:25:55;8.60;;;6.82;;
12852;SDS011;6495;51.808;7.478;2023-06-26T01:28:38;11.52;;;6.85;;
12852;SDS011;6495;51.808;7.478;2023-06-26T01:31:10;6.88;;;6.10;;
12852;SDS011;6495;51.808;7.478;2023-06-26T01:33:39;7.95;;;5.88;;
12852;SDS011;6495;51.808;7.478;2023-06-26T01:36:08;7.50;;;6.65;;
12852;SDS011;6495;51.808;7.478;2023-06-26T01:38:37;9.68;;;5.97;;
12852;SDS011;6495;51.808;7.478;2023-06-26T01:41:07;8.73;;;6.35;;
12852;SDS011;6495;51.808;7.478;2023-06-26T01:43:39;7.55;;;6.22;;
12852;SDS011;6495;51.808;7.478;2023-06-26T01:46:25;7.68;;;6.60;;
12852;SDS011;6495;51.808;7.478;2023-06-26T01:49:06;8.48;;;6.05;;
12852;SDS011;6495;51.808;7.478;2023-06-26T01:51:47;13.43;;;6.30;;
12852;SDS011;6495;51.808;7.478;2023-06-26T01:54:26;8.70;;;6.15;;
12852;SDS011;6495;51.808;7.478;2023-06-26T01:57:01;10.40;;;6.90;;
12852;SDS011;6495;51.808;7.478;2023-06-26T01:59:32;8.25;;;6.38;;
12852;SDS011;6495;51.808;7.478;2023-06-26T02:02:02;8.02;;;6.30;;
12852;SDS011;6495;51.808;7.478;2023-06-26T02:04:36;9.45;;;6.03;;
12852;SDS011;6495;51.808;7.478;2023-06-26T02:07:05;9.38;;;6.43;;
12852;SDS011;6495;51.808;7.478;2023-06-26T02:09:35;10.45;;;6.82;;
12852;SDS011;6495;51.808;7.478;2023-06-26T02:12:06;10.48;;;7.05;;
12852;SDS011;6495;51.808;7.478;2023-06-26T02:14:35;9.32;;;6.63;;
12852;SDS011;6495;51.808;7.478;2023-06-26T02:17:03;8.82;;;6.80;;
12852;SDS011;6495;51.808;7.478;2023-06-26T02:19:31;8.50;;;6.68;;
12852;SDS011;6495;51.808;7.478;2023-06-26T02:22:00;9.00;;;7.32;;
12852;SDS011;6495;51.808;7.478;2023-06-26T02:24:28;7.68;;;5.82;;
12852;SDS011;6495;51.808;7.478;2023-06-26T02:26:57;8.27;;;6.07;;
12852;SDS011;6495;51.808;7.478;2023-06-26T02:29:26;7.93;;;6.28;;
12852;SDS011;6495;51.808;7.478;2023-06-26T02:31:54;13.10;;;6.22;;
12852;SDS011;6495;51.808;7.478;2023-06-26T02:34:23;8.38;;;5.78;;
12852;SDS011;6495;51.808;7.478;2023-06-26T02:36:52;9.90;;;6.32;;
12852;SDS011;6495;51.808;7.478;2023-06-26T02:39:21;8.20;;;5.85;;
12852;SDS011;6495;51.808;7.478;2023-06-26T02:41:50;8.45;;;6.32;;
12852;SDS011;6495;51.808;7.478;2023-06-26T02:44:20;9.50;;;6.05;;
12852;SDS011;6495;51.808;7.478;2023-06-26T02:46:50;9.32;;;6.30;;
12852;SDS011;6495;51.808;7.478;2023-06-26T02:49:18;8.35;;;6.07;;
12852;SDS011;6495;51.808;7.478;2023-06-26T02:51:49;7.95;;;5.88;;
12852;SDS011;6495;51.808;7.478;2023-06-26T02:54:26;8.45;;;5.85;;
12852;SDS011;6495;51.808;7.478;2023-06-26T02:57:00;9.13;;;6.03;;
12852;SDS011;6495;51.808;7.478;2023-06-26T02:59:30;7.88;;;5.95;;
12852;SDS011;6495;51.808;7.478;2023-06-26T03:02:00;7.68;;;6.22;;
12852;SDS011;6495;51.808;7.478;2023-06-26T03:04:33;7.60;;;5.93;;
12852;SDS011;6495;51.808;7.478;2023-06-26T03:07:04;9.73;;;6.40;;
12852;SDS011;6495;51.808;7.478;2023-06-26T03:09:32;8.50;;;6.15;;
12852;SDS011;6495;51.808;7.478;2023-06-26T03:12:01;7.28;;;5.60;;
12852;SDS011;6495;51.808;7.478;2023-06-26T03:14:32;11.07;;;5.68;;
12852;SDS011;6495;51.808;7.478;2023-06-26T03:17:01;7.85;;;5.53;;
12852;SDS011;6495;51.808;7.478;2023-06-26T03:19:32;7.63;;;5.82;;
12852;SDS011;6495;51.808;7.478;2023-06-26T03:22:26;9.32;;;6.00;;
12852;SDS011;6495;51.808;7.478;2023-06-26T03:24:54;7.28;;;5.57;;
12852;SDS011;6495;51.808;7.478;2023-06-26T03:27:22;9.90;;;6.10;;
12852;SDS011;6495;51.808;7.478;2023-06-26T03:29:51;8.38;;;5.22;;
12852;SDS011;6495;51.808;7.478;2023-06-26T03:32:23;6.95;;;5.38;;
12852;SDS011;6495;51.808;7.478;2023-06-26T03:34:51;9.15;;;5.60;;
12852;SDS011;6495;51.808;7.478;2023-06-26T03:37:20;9.52;;;5.63;;
12852;SDS011;6495;51.808;7.478;2023-06-26T03:39:49;7.75;;;5.85;;
12852;SDS011;6495;51.808;7.478;2023-06-26T03:42:17;6.70;;;5.45;;
12852;SDS011;6495;51.808;7.478;2023-06-26T03:44:45;7.28;;;5.50;;
12852;SDS011;6495;51.808;7.478;2023-06-26T03:47:16;7.57;;;5.90;;
12852;SDS011;6495;51.808;7.478;2023-06-26T03:49:45;8.85;;;5.70;;
12852;SDS011;6495;51.808;7.478;2023-06-26T03:52:14;9.02;;;5.88;;
12852;SDS011;6495;51.808;7.478;2023-06-26T03:54:42;6.18;;;5.28;;
12852;SDS011;6495;51.808;7.478;2023-06-26T03:57:10;7.10;;;6.10;;
12852;SDS011;6495;51.808;7.478;2023-06-26T03:59:40;6.85;;;5.35;;
12852;SDS011;6495;51.808;7.478;2023-06-26T04:02:08;6.32;;;5.07;;
12852;SDS011;6495;51.808;7.478;2023-06-26T04:04:41;7.28;;;5.03;;
12852;SDS011;6495;51.808;7.478;2023-06-26T04:07:11;7.68;;;4.65;;
12852;SDS011;6495;51.808;7.478;2023-06-26T04:09:41;7.85;;;5.15;;
12852;SDS011;6495;51.808;7.478;2023-06-26T04:12:09;6.55;;;5.32;;
12852;SDS011;6495;51.808;7.478;2023-06-26T04:14:38;8.63;;;5.45;;
12852;SDS011;6495;51.808;7.478;2023-06-26T04:17:06;9.43;;;5.28;;
12852;SDS011;6495;51.808;7.478;2023-06-26T04:19:34;9.55;;;5.70;;
12852;SDS011;6495;51.808;7.478;2023-06-26T04:22:03;8.07;;;5.35;;
12852;SDS011;6495;51.808;7.478;2023-06-26T04:24:32;7.75;;;5.15;;
12852;SDS011;6495;51.808;7.478;2023-06-26T04:27:00;5.90;;;4.95;;
12852;SDS011;6495;51.808;7.478;2023-06-26T04:29:29;5.13;;;4.55;;
12852;SDS011;6495;51.808;7.478;2023-06-26T04:31:57;8.10;;;6.10;;
12852;SDS011;6495;51.808;7.478;2023-06-26T04:34:28;9.80;;;5.53;;
12852;SDS011;6495;51.808;7.478;2023-06-26T04:37:01;6.72;;;5.93;;
12852;SDS011;6495;51.808;7.478;2023-06-26T04:39:30;11.25;;;5.53;;
12852;SDS011;6495;51.808;7.478;2023-06-26T04:42:02;8.05;;;5.18;;
12852;SDS011;6495;51.808;7.478;2023-06-26T04:44:31;7.65;;;5.18;;
12852;SDS011;6495;51.808;7.478;2023-06-26T04:46:59;6.75;;;5.55;;
12852;SDS011;6495;51.808;7.478;2023-06-26T04:49:28;8.68;;;5.97;;
12852;SDS011;6495;51.808;7.478;2023-06-26T04:51:56;10.88;;;5.68;;
12852;SDS011;6495;51.808;7.478;2023-06-26T04:54:26;8.82;;;6.13;;
12852;SDS011;6495;51.808;7.478;2023-06-26T04:56:56;7.70;;;5.75;;
12852;SDS011;6495;51.808;7.478;2023-06-26T04:59:26;10.13;;;6.35;;
12852;SDS011;6495;51.808;7.478;2023-06-26T05:01:54;14.20;;;6.10;;
12852;SDS011;6495;51.808;7.478;2023-06-26T05:04:22;7.15;;;5.82;;
12852;SDS011;6495;51.808;7.478;2023-06-26T05:06:51;7.78;;;6.00;;
12852;SDS011;6495;51.808;7.478;2023-06-26T05:09:19;6.72;;;5.70;;
12852;SDS011;6495;51.808;7.478;2023-06-26T05:11:48;8.32;;;6.40;;
12852;SDS011;6495;51.808;7.478;2023-06-26T05:14:18;9.30;;;6.22;;
12852;SDS011;6495;51.808;7.478;2023-06-26T05:16:49;6.45;;;5.40;;
12852;SDS011;6495;51.808;7.478;2023-06-26T05:19:18;9.80;;;5.70;;
12852;SDS011;6495;51.808;7.478;2023-06-26T05:21:46;6.68;;;5.38;;
12852;SDS011;6495;51.808;7.478;2023-06-26T05:24:16;9.43;;;5.00;;
12852;SDS011;6495;51.808;7.478;2023-06-26T05:26:49;8.18;;;5.40;;
12852;SDS011;6495;51.808;7.478;2023-06-26T05:29:20;6.00;;;4.47;;
12852;SDS011;6495;51.808;7.478;2023-06-26T05:31:49;7.45;;;4.85;;
12852;SDS011;6495;51.808;7.478;2023-06-26T05:34:23;7.10;;;4.75;;
12852;SDS011;6495;51.808;7.478;2023-06-26T05:36:55;5.95;;;4.32;;
12852;SDS011;6495;51.808;7.478;2023-06-26T05:39:26;5.10;;;4.50;;
12852;SDS011;6495;51.808;7.478;2023-06-26T05:41:55;6.30;;;4.32;;
12852;SDS011;6495;51.808;7.478;2023-06-26T05:44:26;5.03;;;4.35;;
12852;SDS011;6495;51.808;7.478;2023-06-26T05:46:54;7.28;;;4.50;;
12852;SDS011;6495;51.808;7.478;2023-06-26T05:49:22;7.47;;;4.60;;
12852;SDS011;6495;51.808;7.478;2023-06-26T05:51:51;6.20;;;4.22;;
12852;SDS011;6495;51.808;7.478;2023-06-26T05:54:20;10.00;;;4.03;;
12852;SDS011;6495;51.808;7.478;2023-06-26T05:56:51;7.07;;;4.22;;
12852;SDS011;6495;51.808;7.478;2023-06-26T05:59:27;7.25;;;3.83;;
12852;SDS011;6495;51.808;7.478;2023-06-26T06:01:59;6.57;;;4.07;;
12852;SDS011;6495;51.808;7.478;2023-06-26T06:04:27;7.32;;;4.00;;
12852;SDS011;6495;51.808;7.478;2023-06-26T06:06:56;7.05;;;4.32;;
12852;SDS011;6495;51.808;7.478;2023-06-26T06:09:24;7.88;;;4.40;;
12852;SDS011;6495;51.808;7.478;2023-06-26T06:11:52;6.03;;;3.88;;
12852;SDS011;6495;51.808;7.478;2023-06-26T06:14:21;6.35;;;4.05;;
12852;SDS011;6495;51.808;7.478;2023-06-26T06:16:50;5.90;;;4.18;;
12852;SDS011;6495;51.808;7.478;2023-06-26T06:19:18;6.68;;;4.15;;
12852;SDS011;6495;51.808;7.478;2023-06-26T06:21:47;8.30;;;4.40;;
12852;SDS011;6495;51.808;7.478;2023-06-26T06:24:15;5.90;;;4.03;;
12852;SDS011;6495;51.808;7.478;2023-06-26T06:26:44;5.90;;;4.32;;
12852;SDS011;6495;51.808;7.478;2023-06-26T06:29:12;5.68;;;4.50;;
12852;SDS011;6495;51.808;7.478;2023-06-26T06:31:41;10.18;;;4.88;;
12852;SDS011;6495;51.808;7.478;2023-06-26T06:34:10;9.98;;;5.07;;
12852;SDS011;6495;51.808;7.478;2023-06-26T06:36:39;7.20;;;5.03;;
12852;SDS011;6495;51.808;7.478;2023-06-26T06:39:08;8.30;;;4.82;;
12852;SDS011;6495;51.808;7.478;2023-06-26T06:41:36;8.63;;;4.97;;
12852;SDS011;6495;51.808;7.478;2023-06-26T06:44:05;7.28;;;5.18;;
12852;SDS011;6495;51.808;7.478;2023-06-26T06:46:34;6.00;;;4.53;;
12852;SDS011;6495;51.808;7.478;2023-06-26T06:49:02;6.55;;;4.82;;
12852;SDS011;6495;51.808;7.478;2023-06-26T06:51:32;7.13;;;5.20;;
12852;SDS011;6495;51.808;7.478;2023-06-26T06:54:00;8.95;;;4.93;;
12852;SDS011;6495;51.808;7.478;2023-06-26T06:56:29;6.75;;;4.35;;
12852;SDS011;6495;51.808;7.478;2023-06-26T06:58:57;8.07;;;4.70;;
12852;SDS011;6495;51.808;7.478;2023-06-26T07:01:26;6.63;;;4.38;;
12852;SDS011;6495;51.808;7.478;2023-06-26T07:03:54;7.00;;;4.30;;
12852;SDS011;6495;51.808;7.478;2023-06-26T07:06:24;8.52;;;4.60;;
12852;SDS011;6495;51.808;7.478;2023-06-26T07:08:54;6.72;;;4.38;;
12852;SDS011;6495;51.808;7.478;2023-06-26T07:11:22;7.97;;;4.53;;
12852;SDS011;6495;51.808;7.478;2023-06-26T07:13:51;8.20;;;4.38;;
12852;SDS011;6495;51.808;7.478;2023-06-26T07:16:19;7.40;;;4.57;;
12852;SDS011;6495;51.808;7.478;2023-06-26T07:18:47;11.50;;;4.90;;
12852;SDS011;6495;51.808;7.478;2023-06-26T07:21:17;8.05;;;4.93;;
12852;SDS011;6495;51.808;7.478;2023-06-26T07:23:46;6.43;;;4.72;;
12852;SDS011;6495;51.808;7.478;2023-06-26T07:26:16;6.47;;;4.40;;
12852;SDS011;6495;51.808;7.478;2023-06-26T07:28:54;7.78;;;4.18;;
12852;SDS011;6495;51.808;7.478;2023-06-26T07:31:23;5.45;;;4.22;;
12852;SDS011;6495;51.808;7.478;2023-06-26T07:33:51;7.30;;;4.45;;
12852;SDS011;6495;51.808;7.478;2023-06-26T07:36:22;5.90;;;4.18;;
12852;SDS011;6495;51.808;7.478;2023-06-26T07:38:51;11.43;;;4.32;;
12852;SDS011;6495;51.808;7.478;2023-06-26T07:41:21;9.93;;;4.53;;
12852;SDS011;6495;51.808;7.478;2023-06-26T07:43:49;10.65;;;4.57;;
12852;SDS011;6495;51.808;7.478;2023-06-26T07:46:18;7.95;;;4.35;;
12852;SDS011;6495;51.808;7.478;2023-06-26T07:48:46;9.15;;;4.78;;
12852;SDS011;6495;51.808;7.478;2023-06-26T07:51:15;7.70;;;4.65;;
12852;SDS011;6495;51.808;7.478;2023-06-26T07:53:43;7.45;;;4.35;;
12852;SDS011;6495;51.808;7.478;2023-06-26T07:56:12;8.82;;;3.85;;
12852;SDS011;6495;51.808;7.478;2023-06-26T07:58:42;7.47;;;4.05;;
12852;SDS011;6495;51.808;7.478;2023-06-26T08:01:10;7.82;;;3.67;;
12852;SDS011;6495;51.808;7.478;2023-06-26T08:03:39;8.32;;;4.20;;
12852;SDS011;6495;51.808;7.478;2023-06-26T08:06:09;9.18;;;4.68;;
12852;SDS011;6495;51.808;7.478;2023-06-26T08:08:38;9.55;;;4.45;;
12852;SDS011;6495;51.808;7.478;2023-06-26T08:11:06;11.30;;;4.38;;
12852;SDS011;6495;51.808;7.478;2023-06-26T08:13:35;6.10;;;4.00;;
12852;SDS011;6495;51.808;7.478;2023-06-26T08:16:05;6.32;;;3.83;;
12852;SDS011;6495;51.808;7.478;2023-06-26T08:18:36;7.40;;;3.55;;
12852;SDS011;6495;51.808;7.478;2023-06-26T08:21:05;10.05;;;4.20;;
12852;SDS011;6495;51.808;7.478;2023-06-26T08:23:36;13.05;;;3.88;;
12852;SDS011;6495;51.808;7.478;2023-06-26T08:26:04;7.80;;;4.20;;
12852;SDS011;6495;51.808;7.478;2023-06-26T08:28:33;7.00;;;4.15;;
12852;SDS011;6495;51.808;7.478;2023-06-26T08:31:01;6.47;;;3.97;;
12852;SDS011;6495;51.808;7.478;2023-06-26T08:33:31;6.85;;;4.25;;
12852;SDS011;6495;51.808;7.478;2023-06-26T08:36:00;7.65;;;4.40;;
12852;SDS011;6495;51.808;7.478;2023-06-26T08:38:29;6.70;;;3.92;;
12852;SDS011;6495;51.808;7.478;2023-06-26T08:40:57;6.82;;;3.53;;
12852;SDS011;6495;51.808;7.478;2023-06-26T08:43:26;6.60;;;3.88;;
12852;SDS011;6495;51.808;7.478;2023-06-26T08:45:54;8.60;;;5.10;;
12852;SDS011;6495;51.808;7.478;2023-06-26T08:48:23;7.82;;;4.05;;
12852;SDS011;6495;51.808;7.478;2023-06-26T08:50:54;6.22;;;3.53;;
12852;SDS011;6495;51.808;7.478;2023-06-26T08:53:27;9.02;;;4.13;;
12852;SDS011;6495;51.808;7.478;2023-06-26T08:56:02;8.98;;;3.88;;
12852;SDS011;6495;51.808;7.478;2023-06-26T08:58:33;8.07;;;3.92;;
12852;SDS011;6495;51.808;7.478;2023-06-26T09:01:06;8.65;;;4.07;;
12852;SDS011;6495;51.808;7.478;2023-06-26T09:03:35;13.35;;;4.72;;
12852;SDS011;6495;51.808;7.478;2023-06-26T09:06:05;6.45;;;4.10;;
12852;SDS011;6495;51.808;7.478;2023-06-26T09:08:34;8.23;;;4.43;;
12852;SDS011;6495;51.808;7.478;2023-06-26T09:11:02;9.90;;;4.07;;
12852;SDS011;6495;51.808;7.478;2023-06-26T09:13:31;7.22;;;3.58;;
12852;SDS011;6495;51.808;7.478;2023-06-26T09:16:03;7.80;;;3.47;;
12852;SDS011;6495;51.808;7.478;2023-06-26T09:18:34;4.95;;;3.08;;
12852;SDS011;6495;51.808;7.478;2023-06-26T09:21:07;6.15;;;2.85;;
12852;SDS011;6495;51.808;7.478;2023-06-26T09:23:37;6.13;;;2.90;;
12852;SDS011;6495;51.808;7.478;2023-06-26T09:26:08;7.63;;;3.10;;
12852;SDS011;6495;51.808;7.478;2023-06-26T09:28:36;6.32;;;3.00;;
12852;SDS011;6495;51.808;7.478;2023-06-26T09:31:06;5.40;;;3.05;;
12852;SDS011;6495;51.808;7.478;2023-06-26T09:33:37;5.00;;;3.13;;
12852;SDS011;6495;51.808;7.478;2023-06-26T09:36:18;5.18;;;2.83;;
12852;SDS011;6495;51.808;7.478;2023-06-26T09:38:48;7.95;;;3.20;;
12852;SDS011;6495;51.808;7.478;2023-06-26T09:41:18;3.83;;;3.15;;
12852;SDS011;6495;51.808;7.478;2023-06-26T09:43:46;7.40;;;3.05;;
12852;SDS011;6495;51.808;7.478;2023-06-26T09:46:16;4.50;;;3.03;;
12852;SDS011;6495;51.808;7.478;2023-06-26T09:48:45;6.05;;;3.20;;
12852;SDS011;6495;51.808;7.478;2023-06-26T09:51:15;5.72;;;3.17;;
12852;SDS011;6495;51.808;7.478;2023-06-26T09:53:49;4.97;;;2.97;;
12852;SDS011;6495;51.808;7.478;2023-06-26T09:56:18;5.28;;;3.00;;
12852;SDS011;6495;51.808;7.478;2023-06-26T09:58:48;4.38;;;3.17;;
12852;SDS011;6495;51.808;7.478;2023-06-26T10:01:17;5.05;;;3.10;;
12852;SDS011;6495;51.808;7.478;2023-06-26T10:03:47;6.05;;;2.72;;
12852;SDS011;6495;51.808;7.478;2023-06-26T10:06:17;6.97;;;3.15;;
12852;SDS011;6495;51.808;7.478;2023-06-26T10:08:51;4.68;;;3.20;;
12852;SDS011;6495;51.808;7.478;2023-06-26T10:11:21;7.43;;;3.00;;
12852;SDS011;6495;51.808;7.478;2023-06-26T10:13:54;5.68;;;2.90;;
12852;SDS011;6495;51.808;7.478;2023-06-26T10:16:42;3.25;;;2.25;;
12852;SDS011;6495;51.808;7.478;2023-06-26T10:19:14;4.40;;;3.00;;
12852;SDS011;6495;51.808;7.478;2023-06-26T10:21:52;7.30;;;2.80;;
12852;SDS011;6495;51.808;7.478;2023-06-26T10:24:22;5.00;;;2.60;;
12852;SDS011;6495;51.808;7.478;2023-06-26T10:27:14;5.93;;;2.55;;
12852;SDS011;6495;51.808;7.478;2023-06-26T10:29:54;3.42;;;2.67;;
12852;SDS011;6495;51.808;7.478;2023-06-26T10:32:53;4.18;;;2.25;;
12852;SDS011;6495;51.808;7.478;2023-06-26T10:35:32;3.47;;;2.33;;
12852;SDS011;6495;51.808;7.478;2023-06-26T10:38:08;3.63;;;2.08;;
12852;SDS011;6495;51.808;7.478;2023-06-26T10:40:42;6.05;;;2.67;;
12852;SDS011;6495;51.808;7.478;2023-06-26T10:43:13;4.78;;;2.28;;
12852;SDS011;6495;51.808;7.478;2023-06-26T10:45:44;5.55;;;2.50;;
12852;SDS011;6495;51.808;7.478;2023-06-26T10:48:21;5.13;;;2.28;;
12852;SDS011;6495;51.808;7.478;2023-06-26T10:51:37;3.55;;;2.00;;
12852;SDS011;6495;51.808;7.478;2023-06-26T10:54:11;3.15;;;2.03;;
12852;SDS011;6495;51.808;7.478;2023-06-26T10:56:58;5.07;;;1.90;;
12852;SDS011;6495;51.808;7.478;2023-06-26T10:59:27;3.70;;;2.03;;
12852;SDS011;6495;51.808;7.478;2023-06-26T11:01:57;3.00;;;2.00;;
12852;SDS011;6495;51.808;7.478;2023-06-26T11:04:38;4.25;;;2.58;;
12852;SDS011;6495;51.808;7.478;2023-06-26T11:07:15;4.40;;;2.28;;
12852;SDS011;6495;51.808;7.478;2023-06-26T11:09:54;2.50;;;1.90;;
12852;SDS011;6495;51.808;7.478;2023-06-26T11:13:01;4.32;;;2.15;;
12852;SDS011;6495;51.808;7.478;2023-06-26T11:15:45;3.58;;;2.20;;
12852;SDS011;6495;51.808;7.478;2023-06-26T11:18:38;4.65;;;2.25;;
12852;SDS011;6495;51.808;7.478;2023-06-26T11:21:26;3.05;;;2.38;;
12852;SDS011;6495;51.808;7.478;2023-06-26T11:23:55;4.30;;;2.35;;
12852;SDS011;6495;51.808;7.478;2023-06-26T11:26:28;5.20;;;2.50;;
12852;SDS011;6495;51.808;7.478;2023-06-26T11:28:57;4.78;;;2.53;;
12852;SDS011;6495;51.808;7.478;2023-06-26T11:31:26;6.45;;;2.53;;
12852;SDS011;6495;51.808;7.478;2023-06-26T11:33:59;2.85;;;2.35;;
12852;SDS011;6495;51.808;7.478;2023-06-26T11:36:31;3.83;;;2.42;;
12852;SDS011;6495;51.808;7.478;2023-06-26T11:39:08;3.65;;;2.30;;
12852;SDS011;6495;51.808;7.478;2023-06-26T11:41:39;3.08;;;1.95;;
12852;SDS011;6495;51.808;7.478;2023-06-26T11:44:11;3.22;;;1.85;;
12852;SDS011;6495;51.808;7.478;2023-06-26T11:46:53;3.17;;;1.90;;
12852;SDS011;6495;51.808;7.478;2023-06-26T11:49:32;3.03;;;2.15;;
12852;SDS011;6495;51.808;7.478;2023-06-26T11:52:09;4.05;;;2.42;;
12852;SDS011;6495;51.808;7.478;2023-06-26T11:54:39;3.40;;;1.88;;
12852;SDS011;6495;51.808;7.478;2023-06-26T11:57:12;3.65;;;1.90;;
12852;SDS011;6495;51.808;7.478;2023-06-26T11:59:42;4.18;;;1.77;;
12852;SDS011;6495;51.808;7.478;2023-06-26T12:02:12;6.65;;;2.30;;
12852;SDS011;6495;51.808;7.478;2023-06-26T12:04:43;3.58;;;1.85;;
12852;SDS011;6495;51.808;7.478;2023-06-26T12:07:13;3.40;;;2.15;;
12852;SDS011;6495;51.808;7.478;2023-06-26T12:09:43;6.00;;;2.00;;
12852;SDS011;6495;51.808;7.478;2023-06-26T12:12:18;2.28;;;1.58;;
12852;SDS011;6495;51.808;7.478;2023-06-26T12:14:47;2.00;;;1.83;;
12852;SDS011;6495;51.808;7.478;2023-06-26T12:17:22;2.70;;;2.17;;
12852;SDS011;6495;51.808;7.478;2023-06-26T12:19:52;2.95;;;1.55;;
12852;SDS011;6495;51.808;7.478;2023-06-26T12:22:47;1.63;;;1.52;;
12852;SDS011;6495;51.808;7.478;2023-06-26T12:25:23;3.40;;;1.75;;
12852;SDS011;6495;51.808;7.478;2023-06-26T12:27:56;2.53;;;1.60;;
12852;SDS011;6495;51.808;7.478;2023-06-26T12:30:29;1.73;;;1.42;;
12852;SDS011;6495;51.808;7.478;2023-06-26T12:33:12;1.88;;;1.67;;
12852;SDS011;6495;51.808;7.478;2023-06-26T12:35:47;4.07;;;1.50;;
12852;SDS011;6495;51.808;7.478;2023-06-26T12:38:17;3.28;;;1.70;;
12852;SDS011;6495;51.808;7.478;2023-06-26T12:40:57;1.98;;;1.13;;
12852;SDS011;6495;51.808;7.478;2023-06-26T12:43:32;3.78;;;1.08;;
12852;SDS011;6495;51.808;7.478;2023-06-26T12:46:13;4.45;;;1.40;;
12852;SDS011;6495;51.808;7.478;2023-06-26T12:48:49;2.70;;;1.30;;
12852;SDS011;6495;51.808;7.478;2023-06-26T12:51:24;2.75;;;1.50;;
12852;SDS011;6495;51.808;7.478;2023-06-26T12:54:03;2.53;;;0.93;;
12852;SDS011;6495;51.808;7.478;2023-06-26T12:56:32;4.35;;;1.30;;
12852;SDS011;6495;51.808;7.478;2023-06-26T12:59:11;1.65;;;1.15;;
12852;SDS011;6495;51.808;7.478;2023-06-26T13:01:51;2.65;;;1.30;;
12852;SDS011;6495;51.808;7.478;2023-06-26T13:04:22;3.20;;;1.65;;
12852;SDS011;6495;51.808;7.478;2023-06-26T13:07:04;1.92;;;1.30;;
12852;SDS011;6495;51.808;7.478;2023-06-26T13:09:37;3.30;;;1.30;;
12852;SDS011;6495;51.808;7.478;2023-06-26T13:12:07;2.65;;;1.10;;
12852;SDS011;6495;51.808;7.478;2023-06-26T13:14:37;2.50;;;1.30;;
12852;SDS011;6495;51.808;7.478;2023-06-26T13:17:07;0.77;;;0.77;;
12852;SDS011;6495;51.808;7.478;2023-06-26T13:19:36;1.83;;;1.33;;
12852;SDS011;6495;51.808;7.478;2023-06-26T13:22:05;4.05;;;1.27;;
12852;SDS011;6495;51.808;7.478;2023-06-26T13:24:33;1.73;;;1.20;;
12852;SDS011;6495;51.808;7.478;2023-06-26T13:27:02;1.85;;;1.33;;
12852;SDS011;6495;51.808;7.478;2023-06-26T13:29:31;3.22;;;1.30;;
12852;SDS011;6495;51.808;7.478;2023-06-26T13:32:01;2.72;;;1.25;;
12852;SDS011;6495;51.808;7.478;2023-06-26T13:34:30;1.20;;;0.90;;
12852;SDS011;6495;51.808;7.478;2023-06-26T13:36:58;1.48;;;1.25;;
12852;SDS011;6495;51.808;7.478;2023-06-26T13:39:27;7.43;;;1.30;;
12852;SDS011;6495;51.808;7.478;2023-06-26T13:41:55;2.17;;;1.17;;
12852;SDS011;6495;51.808;7.478;2023-06-26T13:44:24;1.40;;;1.15;;
12852;SDS011;6495;51.808;7.478;2023-06-26T13:47:12;1.60;;;1.10;;
12852;SDS011;6495;51.808;7.478;2023-06-26T13:49:41;2.25;;;1.30;;
12852;SDS011;6495;51.808;7.478;2023-06-26T13:52:09;2.17;;;1.20;;
12852;SDS011;6495;51.808;7.478;2023-06-26T13:54:38;1.48;;;1.20;;
12852;SDS011;6495;51.808;7.478;2023-06-26T13:57:07;4.28;;;1.40;;
12852;SDS011;6495;51.808;7.478;2023-06-26T13:59:36;1.85;;;1.40;;
12852;SDS011;6495;51.808;7.478;2023-06-26T14:02:12;2.28;;;1.33;;
12852;SDS011;6495;51.808;7.478;2023-06-26T14:04:41;3.42;;;1.40;;
12852;SDS011;6495;51.808;7.478;2023-06-26T14:07:09;2.33;;;1.30;;
12852;SDS011;6495;51.808;7.478;2023-06-26T14:09:38;3.05;;;1.30;;
12852;SDS011;6495;51.808;7.478;2023-06-26T14:12:07;2.85;;;1.23;;
12852;SDS011;6495;51.808;7.478;2023-06-26T14:14:36;2.42;;;1.35;;
12852;SDS011;6495;51.808;7.478;2023-06-26T14:17:05;2.55;;;1.38;;
12852;SDS011;6495;51.808;7.478;2023-06-26T14:19:37;1.30;;;1.20;;
12852;SDS011;6495;51.808;7.478;2023-06-26T14:22:06;1.98;;;1.30;;
12852;SDS011;6495;51.808;7.478;2023-06-26T14:24:37;1.90;;;1.27;;
12852;SDS011;6495;51.808;7.478;2023-06-26T14:27:06;2.42;;;1.45;;
12852;SDS011;6495;51.808;7.478;2023-06-26T14:29:35;2.15;;;1.20;;
12852;SDS011;6495;51.808;7.478;2023-06-26T14:32:03;2.05;;;1.27;;
12852;SDS011;6495;51.808;7.478;2023-06-26T14:34:34;3.58;;;0.98;;
12852;SDS011;6495;51.808;7.478;2023-06-26T14:37:04;1.42;;;1.10;;
12852;SDS011;6495;51.808;7.478;2023-06-26T14:39:33;1.52;;;1.00;;
12852;SDS011;6495;51.808;7.478;2023-06-26T14:42:01;2.45;;;1.20;;
12852;SDS011;6495;51.808;7.478;2023-06-26T14:44:31;1.85;;;1.15;;
12852;SDS011;6495;51.808;7.478;2023-06-26T14:47:00;6.82;;;1.30;;
12852;SDS011;6495;51.808;7.478;2023-06-26T14:49:28;2.60;;;1.13;;
12852;SDS011;6495;51.808;7.478;2023-06-26T14:51:56;1.77;;;1.23;;
12852;SDS011;6495;51.808;7.478;2023-06-26T14:54:26;1.42;;;1.17;;
12852;SDS011;6495;51.808;7.478;2023-06-26T14:56:55;1.13;;;0.90;;
12852;SDS011;6495;51.808;7.478;2023-06-26T14:59:23;3.63;;;1.33;;
12852;SDS011;6495;51.808;7.478;2023-06-26T15:01:51;2.42;;;1.20;;
12852;SDS011;6495;51.808;7.478;2023-06-26T15:04:20;3.33;;;1.30;;
12852;SDS011;6495;51.808;7.478;2023-06-26T15:06:48;2.92;;;1.58;;
12852;SDS011;6495;51.808;7.478;2023-06-26T15:09:17;3.08;;;1.20;;
12852;SDS011;6495;51.808;7.478;2023-06-26T15:11:46;2.10;;;1.17;;
12852;SDS011;6495;51.808;7.478;2023-06-26T15:14:15;2.35;;;1.23;;
12852;SDS011;6495;51.808;7.478;2023-06-26T15:16:43;3.20;;;1.20;;
12852;SDS011;6495;51.808;7.478;2023-06-26T15:19:14;7.05;;;1.27;;
12852;SDS011;6495;51.808;7.478;2023-06-26T15:21:43;2.08;;;1.20;;
12852;SDS011;6495;51.808;7.478;2023-06-26T15:24:11;1.67;;;1.20;;